秋天枫叶正变黄 / 天气与飞行事故 / 实时突发:巨无霸飞机发动机严重受损击穿...

分享

   

实时突发:巨无霸飞机发动机严重受损击穿机身和缝翼,雷达信号丢失、通信失效、落地后冲出跑道

2020-11-14  秋天枫叶...

引子:黑天鹅事件频发,看来CBT和EBT确实需要好好学习一下,培养一下飞行员的9大胜任力,对付可能的黑天鹅事件。

综合多家媒体(AVH、Twitter等)消息,一架Volga-DnjeprA124今天(11月13日)在Novosibirsk(新西伯利亚)机场遭遇发动机非包容性严重损坏,通讯失效,落地后冲出跑道。

这架起飞重量可达400吨的安124货机是执行VI4066,原计划从俄罗斯Novosibirsk到奥地利维也纳的调机航班。

当地时间今天中午12:08分,北京时间下午1点08分,从新西伯利亚25号跑道起飞通过1800英尺(550米)后,飞机应答机信号和通讯同时中断。

机组返回新西伯利亚机场并在25号跑道着落,但是飞机最终冲出跑道大约200多米。

飞机机翼受损、起落架受损、2号发动机(左侧靠机身的发动机)进气道完全脱落。

飞机翼根处的左缝翼、左侧机身被碎片击穿。

事件造成机场关闭:

A7627/20 NOTAMN
Q) UNNT/QMRLC/IV/NBO/A/000/999/5501N08239E005
A) UNNT B) 2011130600 C) 2011130900
E) RWY 07/25 CLSD DUE TECR.

有报告机场附近超市屋顶被碎片击中。

当时天气还不错,能见度很好。

UNNT 130530Z 20005MPS 9999 -SN SCT025 M04/M07 Q1024 R25/810155 R16/490728 NOSIG RMK QFE758/1011=
UNNT 130500Z 21005MPS 9999 SCT027 M04/M07 Q1024 R25/810155 R16/490728 NOSIG RMK QFE758/1011=

所幸没有人员伤亡。

下面的视频时从塔台的角度拍摄的:

事故原因暂时还没有公布

另外一起发动机鸟击事件。

10号还发生一起飞机发动机被鸟击的事件,一架波音737飞机从哈萨克斯坦阿特劳起飞时遭遇鸟击,飞机安全落地,但是发动机遭受严重损坏。

https://mp.weixin.qq.com/s/8Ufm6p6rpXYnzJI7rsVfag

    本站是提供个人知识管理的网络存储空间,所有内容均由用户发布,不代表本站观点。如发现有害或侵权内容,请点击这里 或 拨打24小时举报电话:4000070609 与我们联系。

    0条评论

    发表

    请遵守用户 评论公约

    类似文章 更多
    喜欢该文的人也喜欢 更多

    ×
    ×

    ¥.00

    微信或支付宝扫码支付:

    开通即同意《个图VIP服务协议》

    全部>>